Time;durP1;ratioP1;P1;durP2;ratioP2;P2;SDS_P1;SDS_P2;PMS_P1;PMS_P2;Temp;Humidity;BMP_temperature;BMP_pressure;BME280_temperature;BME280_humidity;BME280_pressure;Samples;Min_cycle;Max_cycle;Signal;HPM_P1;HPM_P2
2021/04/10 00:01:14;;;;;;;;;;;;;;;;;;5076140;28;19904;-59
2021/04/10 00:03:40;;;;;;;;;;;;;;;;;;5076343;28;20277;-60
2021/04/10 00:06:06;;;;;;;;;;;;;;;;;;5075928;28;20042;-60
2021/04/10 00:08:32;;;;;;;;;;;;;;;;;;5076289;28;19904;-58
2021/04/10 00:10:57;;;;;;;;;;;;;;;;;;5056071;28;19912;-59
2021/04/10 00:13:23;;;;;;;;;;;;;;;;;;5076248;28;19947;-59
2021/04/10 00:15:49;;;;;;;;;;;;;;;;;;5071920;28;19954;-59
2021/04/10 00:18:15;;;;;;;;;;;;;;;;;;5060479;28;19912;-59
2021/04/10 00:20:41;;;;;;;;;;;;;;;;;;5070912;28;20026;-59
2021/04/10 00:23:07;;;;;;;;;;;;;;;;;;5076302;28;20458;-59
2021/04/10 00:25:33;;;;;;;;;;;;;;;;;;5075818;28;20007;-59
2021/04/10 00:27:59;;;;;;;;;;;;;;;;;;5076026;28;19974;-61
2021/04/10 00:30:25;;;;;;;;;;;;;;;;;;5076381;28;19996;-60
2021/04/10 00:32:51;;;;;;;;;;;;;;;;;;5075477;28;19947;-59
2021/04/10 00:35:17;;;;;;;;;;;;;;;;;;5075875;28;19922;-59
2021/04/10 00:37:43;;;;;;;;;;;;;;;;;;5077361;28;19919;-60
2021/04/10 00:40:09;;;;;;;;;;;;;;;;;;5079574;28;19942;-60
2021/04/10 00:42:34;;;;;;;;;;;;;;;;;;5079524;28;19966;-66
2021/04/10 00:45:00;;;;;;;;;;;;;;;;;;5079746;28;19905;-60
2021/04/10 00:47:26;;;;;;;;;;;;;;;;;;5079486;28;19909;-62
2021/04/10 00:49:52;;;;;;;;;;;;;;;;;;5077627;28;20376;-59
2021/04/10 00:52:18;;;;;;;;;;;;;;;;;;5075112;28;20003;-59
2021/04/10 00:54:44;;;;;;;;;;;;;;;;;;5074701;28;20011;-59
2021/04/10 00:57:10;;;;;;;;;;;;;;;;;;5065497;28;20313;-59
2021/04/10 00:59:36;;;;;;;;;;;;;;;;;;5069075;28;20381;-60
2021/04/10 01:02:02;;;;;;;;;;;;;;;;;;5075212;28;19916;-59
2021/04/10 01:04:28;;;;;;;;;;;;;;;;;;5074909;28;19905;-58
2021/04/10 01:06:54;;;;;;;;;;;;;;;;;;5075351;28;19916;-59
2021/04/10 01:09:20;;;;;;;;;;;;;;;;;;5074873;28;20324;-58
2021/04/10 01:11:46;;;;;;;;;;;;;;;;;;5074670;28;20346;-58
2021/04/10 01:14:11;;;;;;;;;;;;;;;;;;5074783;28;19958;-60
2021/04/10 01:16:37;;;;;;;;;;;;;;;;;;5074866;28;19908;-59
2021/04/10 01:19:04;;;;;;;;;;;;;;;;;;5074410;28;19904;-60
2021/04/10 01:21:30;;;;;;;;;;;;;;;;;;5075028;28;19912;-59
2021/04/10 01:23:56;;;;;;;;;;;;;;;;;;5074721;28;19919;-60
2021/04/10 01:26:22;;;;;;;;;;;;;;;;;;5074786;28;20277;-59
2021/04/10 01:28:48;;;;;;;;;;;;;;;;;;5074690;28;19905;-60
2021/04/10 01:31:13;;;;;;;;;;;;;;;;;;5056692;28;19927;-60
2021/04/10 01:33:39;;;;;;;;;;;;;;;;;;5074829;28;19904;-59
2021/04/10 01:36:05;;;;;;;;;;;;;;;;;;5074279;28;20354;-59
2021/04/10 01:38:31;;;;;;;;;;;;;;;;;;5065685;28;19912;-60
2021/04/10 01:40:57;;;;;;;;;;;;;;;;;;5074273;28;19911;-60
2021/04/10 01:43:23;;;;;;;;;;;;;;;;;;5070912;28;20007;-60
2021/04/10 01:45:49;;;;;;;;;;;;;;;;;;5059042;28;20354;-59
2021/04/10 01:48:15;;;;;;;;;;;;;;;;;;5068475;28;19911;-59
2021/04/10 01:50:41;;;;;;;;;;;;;;;;;;5053921;28;19925;-59
2021/04/10 01:53:07;;;;;;;;;;;;;;;;;;5054215;28;20358;-60
2021/04/10 01:55:33;;;;;;;;;;;;;;;;;;5058051;28;19904;-59
2021/04/10 01:57:59;;;;;;;;;;;;;;;;;;5064970;28;20232;-60
2021/04/10 02:00:24;;;;;;;;;;;;;;;;;;5054306;28;19912;-59
2021/04/10 02:02:50;;;;;;;;;;;;;;;;;;5053973;28;19923;-59
2021/04/10 02:05:16;;;;;;;;;;;;;;;;;;5054541;28;19909;-60
2021/04/10 02:07:42;;;;;;;;;;;;;;;;;;5059492;28;19910;-59
2021/04/10 02:10:08;;;;;;;;;;;;;;;;;;5074907;28;20006;-61
2021/04/10 02:12:34;;;;;;;;;;;;;;;;;;5074824;28;19970;-66
2021/04/10 02:15:00;;;;;;;;;;;;;;;;;;5065649;28;19935;-60
2021/04/10 02:17:26;;;;;;;;;;;;;;;;;;5052959;28;20353;-60
2021/04/10 02:19:52;;;;;;;;;;;;;;;;;;5053463;28;19974;-59
2021/04/10 02:22:18;;;;;;;;;;;;;;;;;;5053754;28;19960;-59
2021/04/10 02:24:44;;;;;;;;;;;;;;;;;;5059360;28;19911;-60
2021/04/10 02:27:10;;;;;;;;;;;;;;;;;;5057015;28;20410;-60
2021/04/10 02:29:36;;;;;;;;;;;;;;;;;;5073816;28;19940;-60
2021/04/10 02:32:02;;;;;;;;;;;;;;;;;;5073638;28;19955;-59
2021/04/10 02:34:28;;;;;;;;;;;;;;;;;;5071768;28;20375;-59
2021/04/10 02:36:54;;;;;;;;;;;;;;;;;;5060905;28;19911;-59
2021/04/10 02:39:20;;;;;;;;;;;;;;;;;;5073158;28;19911;-59
2021/04/10 02:41:46;;;;;;;;;;;;;;;;;;5073378;28;20007;-59
2021/04/10 02:44:12;;;;;;;;;;;;;;;;;;5073714;28;19912;-59
2021/04/10 02:46:38;;;;;;;;;;;;;;;;;;5072867;28;19911;-59
2021/04/10 02:49:04;;;;;;;;;;;;;;;;;;5064835;28;19912;-59
2021/04/10 02:51:30;;;;;;;;;;;;;;;;;;5053011;28;19916;-58
2021/04/10 02:53:56;;;;;;;;;;;;;;;;;;5053721;28;19909;-60
2021/04/10 02:56:22;;;;;;;;;;;;;;;;;;5066077;28;19911;-59
2021/04/10 02:58:48;;;;;;;;;;;;;;;;;;5073073;28;19908;-59
2021/04/10 03:01:14;;;;;;;;;;;;;;;;;;5054957;28;19904;-60
2021/04/10 03:03:39;;;;;;;;;;;;;;;;;;5052102;28;20322;-59
2021/04/10 03:06:05;;;;;;;;;;;;;;;;;;5059768;28;19915;-59
2021/04/10 03:08:31;;;;;;;;;;;;;;;;;;5073031;28;19912;-61
2021/04/10 03:10:57;;;;;;;;;;;;;;;;;;5072606;28;20274;-59
2021/04/10 03:13:23;;;;;;;;;;;;;;;;;;5072687;28;19905;-59
2021/04/10 03:15:49;;;;;;;;;;;;;;;;;;5072647;28;19974;-58
2021/04/10 03:18:15;;;;;;;;;;;;;;;;;;5055366;28;19905;-59
2021/04/10 03:20:42;;;;;;;;;;;;;;;;;;5069144;28;19917;-59
2021/04/10 03:23:08;;;;;;;;;;;;;;;;;;5061358;28;19916;-59
2021/04/10 03:25:34;;;;;;;;;;;;;;;;;;5072471;28;19905;-60
2021/04/10 03:28:00;;;;;;;;;;;;;;;;;;5071950;28;20373;-60
2021/04/10 03:30:26;;;;;;;;;;;;;;;;;;5072398;28;19908;-60
2021/04/10 03:32:52;;;;;;;;;;;;;;;;;;5056919;28;19916;-60
2021/04/10 03:35:18;;;;;;;;;;;;;;;;;;5052540;28;19905;-60
2021/04/10 03:37:44;;;;;;;;;;;;;;;;;;5061438;28;20004;-60
2021/04/10 03:40:10;;;;;;;;;;;;;;;;;;5050738;28;19947;-59
2021/04/10 03:42:36;;;;;;;;;;;;;;;;;;5072393;28;19920;-59
2021/04/10 03:45:02;;;;;;;;;;;;;;;;;;5072181;28;20367;-59
2021/04/10 03:47:28;;;;;;;;;;;;;;;;;;5072459;28;19904;-59
2021/04/10 03:49:53;;;;;;;;;;;;;;;;;;5072037;28;19912;-59
2021/04/10 03:52:19;;;;;;;;;;;;;;;;;;5072159;28;20011;-59
2021/04/10 03:54:45;;;;;;;;;;;;;;;;;;5072363;28;20019;-60
2021/04/10 03:57:11;;;;;;;;;;;;;;;;;;5072203;28;19920;-59
2021/04/10 03:59:37;;;;;;;;;;;;;;;;;;5072055;28;20262;-59
2021/04/10 04:02:03;;;;;;;;;;;;;;;;;;5071962;28;19927;-58
2021/04/10 04:04:30;;;;;;;;;;;;;;;;;;5073681;28;19915;-60
2021/04/10 04:06:56;;;;;;;;;;;;;;;;;;5055204;28;19959;-59
2021/04/10 04:09:22;;;;;;;;;;;;;;;;;;5071630;28;20330;-58
2021/04/10 04:11:48;;;;;;;;;;;;;;;;;;5072191;28;20239;-59
2021/04/10 04:14:14;;;;;;;;;;;;;;;;;;5071981;28;19912;-59
2021/04/10 04:16:40;;;;;;;;;;;;;;;;;;5071979;28;19904;-58
2021/04/10 04:19:06;;;;;;;;;;;;;;;;;;5072610;28;19904;-62
2021/04/10 04:21:31;;;;;;;;;;;;;;;;;;5075585;28;19905;-59
2021/04/10 04:23:59;;;;;;;;;;;;;;;;;;5072927;28;19924;-60
2021/04/10 04:26:25;;;;;;;;;;;;;;;;;;5073647;28;19962;-59
2021/04/10 04:28:51;;;;;;;;;;;;;;;;;;5073010;28;19908;-60
2021/04/10 04:31:19;;;;;;;;;;;;;;;;;;5071882;28;19958;-59
2021/04/10 04:33:45;;;;;;;;;;;;;;;;;;5053709;28;19905;-59
2021/04/10 04:36:11;;;;;;;;;;;;;;;;;;5071971;28;19908;-60
2021/04/10 04:38:37;;;;;;;;;;;;;;;;;;5071447;28;20265;-59
2021/04/10 04:41:03;;;;;;;;;;;;;;;;;;5074779;28;19908;-60
2021/04/10 04:43:29;;;;;;;;;;;;;;;;;;5075876;28;19917;-60
2021/04/10 04:45:55;;;;;;;;;;;;;;;;;;5058308;28;19928;-59
2021/04/10 04:48:21;;;;;;;;;;;;;;;;;;5075187;28;20341;-59
2021/04/10 04:50:47;;;;;;;;;;;;;;;;;;5075540;28;19916;-60
2021/04/10 04:53:13;;;;;;;;;;;;;;;;;;5075139;28;19909;-60
2021/04/10 04:55:40;;;;;;;;;;;;;;;;;;5075244;28;19909;-60
2021/04/10 04:58:06;;;;;;;;;;;;;;;;;;5075190;28;19908;-60
2021/04/10 05:00:32;;;;;;;;;;;;;;;;;;5074913;28;20251;-60
2021/04/10 05:02:58;;;;;;;;;;;;;;;;;;5073282;28;20053;-60
2021/04/10 05:05:24;;;;;;;;;;;;;;;;;;5075662;28;19904;-60
2021/04/10 05:07:50;;;;;;;;;;;;;;;;;;5073639;28;19912;-59
2021/04/10 05:10:16;;;;;;;;;;;;;;;;;;5056923;28;19908;-60
2021/04/10 05:12:42;;;;;;;;;;;;;;;;;;5075062;28;19904;-60
2021/04/10 05:15:08;;;;;;;;;;;;;;;;;;5075532;28;19948;-60
2021/04/10 05:17:34;;;;;;;;;;;;;;;;;;5075259;28;19947;-60
2021/04/10 05:20:00;;;;;;;;;;;;;;;;;;5075444;28;19951;-60
2021/04/10 05:22:26;;;;;;;;;;;;;;;;;;5057140;28;19952;-60
2021/04/10 05:24:52;;;;;;;;;;;;;;;;;;5074940;28;19904;-58
2021/04/10 05:27:18;;;;;;;;;;;;;;;;;;5073200;28;20280;-59
2021/04/10 05:29:43;;;;;;;;;;;;;;;;;;5056488;28;20270;-59
2021/04/10 05:32:09;;;;;;;;;;;;;;;;;;5060645;28;19912;-59
2021/04/10 05:34:36;;;;;;;;;;;;;;;;;;5058646;28;20332;-60
2021/04/10 05:37:02;;;;;;;;;;;;;;;;;;5060305;28;20030;-59
2021/04/10 05:39:28;;;;;;;;;;;;;;;;;;5066519;28;19939;-59
2021/04/10 05:41:54;;;;;;;;;;;;;;;;;;5071985;28;20348;-59
2021/04/10 05:44:20;;;;;;;;;;;;;;;;;;5075332;28;19944;-59
2021/04/10 05:46:46;;;;;;;;;;;;;;;;;;5045566;28;20415;-59
2021/04/10 05:49:12;;;;;;;;;;;;;;;;;;5072477;28;19905;-58
2021/04/10 05:51:38;;;;;;;;;;;;;;;;;;5055329;28;20191;-59
2021/04/10 05:54:04;;;;;;;;;;;;;;;;;;5074024;28;19912;-59
2021/04/10 05:56:30;;;;;;;;;;;;;;;;;;5075138;28;19904;-59
2021/04/10 05:58:56;;;;;;;;;;;;;;;;;;5074550;28;19965;-59
2021/04/10 06:01:22;;;;;;;;;;;;;;;;;;5074625;28;19909;-60
2021/04/10 06:03:48;;;;;;;;;;;;;;;;;;5074107;28;19917;-60
2021/04/10 06:06:14;;;;;;;;;;;;;;;;;;5074438;28;19904;-59
2021/04/10 06:08:40;;;;;;;;;;;;;;;;;;5074497;28;19915;-59
2021/04/10 06:11:06;;;;;;;;;;;;;;;;;;5076770;28;20406;-60
2021/04/10 06:13:32;;;;;;;;;;;;;;;;;;5076245;28;19905;-59
2021/04/10 06:15:57;;;;;;;;;;;;;;;;;;5073994;28;19908;-58
2021/04/10 06:18:23;;;;;;;;;;;;;;;;;;5073772;28;19944;-58
2021/04/10 06:20:49;;;;;;;;;;;;;;;;;;5063007;28;19931;-59
2021/04/10 06:23:15;;;;;;;;;;;;;;;;;;5070649;28;19971;-60
2021/04/10 06:25:41;;;;;;;;;;;;;;;;;;5073626;28;20297;-59
2021/04/10 06:28:08;;;;;;;;;;;;;;;;;;5073776;28;20291;-58
2021/04/10 06:30:34;;;;;;;;;;;;;;;;;;5073562;28;20334;-58
2021/04/10 06:33:00;;;;;;;;;;;;;;;;;;5073424;28;20045;-58
2021/04/10 06:35:26;;;;;;;;;;;;;;;;;;5073305;28;19999;-59
2021/04/10 06:37:51;;;;;;;;;;;;;;;;;;5073895;28;19905;-59
2021/04/10 06:40:17;;;;;;;;;;;;;;;;;;5073182;28;20374;-58
2021/04/10 06:42:43;;;;;;;;;;;;;;;;;;5073227;28;19912;-60
2021/04/10 06:45:09;;;;;;;;;;;;;;;;;;5072905;28;19911;-60
2021/04/10 06:47:35;;;;;;;;;;;;;;;;;;5073152;28;19911;-59
2021/04/10 06:50:02;;;;;;;;;;;;;;;;;;5055413;28;19914;-59
2021/04/10 06:52:27;;;;;;;;;;;;;;;;;;5072905;28;19921;-59
2021/04/10 06:54:53;;;;;;;;;;;;;;;;;;5073428;28;20304;-59
2021/04/10 06:57:19;;;;;;;;;;;;;;;;;;5072879;28;20399;-59
2021/04/10 06:59:45;;;;;;;;;;;;;;;;;;5072755;28;19962;-59
2021/04/10 07:02:11;;;;;;;;;;;;;;;;;;5072745;28;19912;-58
2021/04/10 07:04:37;;;;;;;;;;;;;;;;;;5073378;28;20393;-59
2021/04/10 07:07:03;;;;;;;;;;;;;;;;;;5073313;28;19996;-59
2021/04/10 07:09:29;;;;;;;;;;;;;;;;;;5069238;28;19916;-58
2021/04/10 07:11:55;;;;;;;;;;;;;;;;;;5056301;28;19904;-59
2021/04/10 07:14:21;;;;;;;;;;;;;;;;;;5060996;28;19905;-61
2021/04/10 07:16:47;;;;;;;;;;;;;;;;;;5060035;28;20015;-59
2021/04/10 07:19:13;;;;;;;;;;;;;;;;;;5053245;28;20340;-60
2021/04/10 07:21:39;;;;;;;;;;;;;;;;;;5035016;28;19931;-58
2021/04/10 07:24:05;;;;;;;;;;;;;;;;;;5052566;28;20298;-59
2021/04/10 07:26:31;;;;;;;;;;;;;;;;;;5053091;28;19909;-59
2021/04/10 07:28:57;;;;;;;;;;;;;;;;;;5056127;28;19913;-57
2021/04/10 07:31:23;;;;;;;;;;;;;;;;;;5052591;28;19916;-57
2021/04/10 07:33:48;;;;;;;;;;;;;;;;;;5057618;28;19944;-57
2021/04/10 07:36:14;;;;;;;;;;;;;;;;;;5053808;28;19908;-58
2021/04/10 07:38:41;;;;;;;;;;;;;;;;;;5069974;28;19913;-55
2021/04/10 07:41:07;;;;;;;;;;;;;;;;;;5053971;28;20358;-57
2021/04/10 07:43:32;;;;;;;;;;;;;;;;;;5070207;28;19919;-56
2021/04/10 07:45:58;;;;;;;;;;;;;;;;;;5071335;28;19904;-57
2021/04/10 07:48:24;;;;;;;;;;;;;;;;;;5071477;28;19905;-57
2021/04/10 07:50:50;;;;;;;;;;;;;;;;;;5070846;28;19919;-58
2021/04/10 07:53:16;;;;;;;;;;;;;;;;;;5071317;28;20337;-57
2021/04/10 07:55:42;;;;;;;;;;;;;;;;;;5069787;28;19905;-58
2021/04/10 07:58:08;;;;;;;;;;;;;;;;;;5070449;28;20251;-57
2021/04/10 08:00:34;;;;;;;;;;;;;;;;;;5068811;28;19957;-58
2021/04/10 08:03:00;;;;;;;;;;;;;;;;;;5052269;28;19912;-57
2021/04/10 08:05:26;;;;;;;;;;;;;;;;;;5071580;28;19949;-58
2021/04/10 08:07:52;;;;;;;;;;;;;;;;;;5069866;28;19999;-58
2021/04/10 08:10:18;;;;;;;;;;;;;;;;;;5072072;28;19999;-57
2021/04/10 08:12:43;;;;;;;;;;;;;;;;;;5072155;28;19904;-57
2021/04/10 08:15:10;;;;;;;;;;;;;;;;;;5073803;28;19927;-58
2021/04/10 08:17:36;;;;;;;;;;;;;;;;;;5056823;28;19962;-53
2021/04/10 08:20:02;;;;;;;;;;;;;;;;;;5071364;28;19983;-54
2021/04/10 08:22:28;;;;;;;;;;;;;;;;;;5073478;28;20015;-53
2021/04/10 08:24:54;;;;;;;;;;;;;;;;;;5073475;28;19944;-54
2021/04/10 08:27:20;;;;;;;;;;;;;;;;;;5071155;28;20017;-54
2021/04/10 08:29:46;;;;;;;;;;;;;;;;;;5069422;28;20367;-57
2021/04/10 08:32:12;;;;;;;;;;;;;;;;;;5066117;28;19928;-57
2021/04/10 08:34:38;;;;;;;;;;;;;;;;;;5071794;28;20397;-57
2021/04/10 08:37:04;;;;;;;;;;;;;;;;;;5069917;28;20342;-57
2021/04/10 08:39:29;;;;;;;;;;;;;;;;;;5055331;28;19908;-57
2021/04/10 08:41:55;;;;;;;;;;;;;;;;;;5075040;28;20010;-57
2021/04/10 08:44:22;;;;;;;;;;;;;;;;;;5075236;28;20252;-55
2021/04/10 08:46:48;;;;;;;;;;;;;;;;;;5075765;28;19916;-58
2021/04/10 08:49:14;;;;;;;;;;;;;;;;;;5075110;28;20373;-57
2021/04/10 08:51:40;;;;;;;;;;;;;;;;;;5075343;28;19920;-56
2021/04/10 08:54:06;;;;;;;;;;;;;;;;;;5075201;28;20019;-55
2021/04/10 08:56:32;;;;;;;;;;;;;;;;;;5075686;28;19927;-58
2021/04/10 08:58:58;;;;;;;;;;;;;;;;;;5075298;28;20372;-54
2021/04/10 09:01:26;;;;;;;;;;;;;;;;;;5075101;28;19904;-56
2021/04/10 09:03:52;;;;;;;;;;;;;;;;;;5075123;28;19919;-58
2021/04/10 09:06:18;;;;;;;;;;;;;;;;;;5060722;28;20003;-56
2021/04/10 09:08:44;;;;;;;;;;;;;;;;;;5073063;28;20346;-58
2021/04/10 09:11:10;;;;;;;;;;;;;;;;;;5070666;28;19997;-58
2021/04/10 09:13:36;;;;;;;;;;;;;;;;;;5072228;28;19955;-56
2021/04/10 09:16:02;;;;;;;;;;;;;;;;;;5073971;28;19990;-55
2021/04/10 09:18:28;;;;;;;;;;;;;;;;;;5075070;28;19904;-55
2021/04/10 09:20:54;;;;;;;;;;;;;;;;;;5075012;28;19931;-56
2021/04/10 09:23:19;;;;;;;;;;;;;;;;;;5074667;28;20374;-56
2021/04/10 09:25:45;;;;;;;;;;;;;;;;;;5074138;28;19908;-56
2021/04/10 09:28:11;;;;;;;;;;;;;;;;;;5072966;28;19966;-56
2021/04/10 09:30:37;;;;;;;;;;;;;;;;;;5061867;28;19908;-57
2021/04/10 09:33:03;;;;;;;;;;;;;;;;;;5074480;28;19904;-56
2021/04/10 09:35:29;;;;;;;;;;;;;;;;;;5074548;28;19974;-56
2021/04/10 09:37:57;;;;;;;;;;;;;;;;;;5074828;28;20324;-56
2021/04/10 09:40:23;;;;;;;;;;;;;;;;;;5074371;28;19904;-58
2021/04/10 09:42:49;;;;;;;;;;;;;;;;;;5074474;28;19920;-56
2021/04/10 09:45:15;;;;;;;;;;;;;;;;;;5074288;28;19908;-56
2021/04/10 09:47:41;;;;;;;;;;;;;;;;;;5056347;28;19912;-55
2021/04/10 09:50:06;;;;;;;;;;;;;;;;;;5073961;28;19923;-57
2021/04/10 09:52:32;;;;;;;;;;;;;;;;;;5074085;28;19921;-58
2021/04/10 09:54:58;;;;;;;;;;;;;;;;;;5074513;28;19908;-58
2021/04/10 09:57:24;;;;;;;;;;;;;;;;;;5074095;28;19927;-57
2021/04/10 09:59:50;;;;;;;;;;;;;;;;;;5073907;28;20363;-55
2021/04/10 10:02:16;;;;;;;;;;;;;;;;;;5074051;28;19908;-55
2021/04/10 10:04:42;;;;;;;;;;;;;;;;;;5073848;28;19904;-55
2021/04/10 10:07:08;;;;;;;;;;;;;;;;;;5074518;28;19912;-55
2021/04/10 10:09:34;;;;;;;;;;;;;;;;;;5073398;28;19927;-56
2021/04/10 10:12:00;;;;;;;;;;;;;;;;;;5074264;28;19904;-57
2021/04/10 10:14:26;;;;;;;;;;;;;;;;;;5073650;28;20353;-59
2021/04/10 10:16:53;;;;;;;;;;;;;;;;;;5060099;28;19911;-58
2021/04/10 10:19:19;;;;;;;;;;;;;;;;;;5073804;28;19908;-57
2021/04/10 10:21:45;;;;;;;;;;;;;;;;;;5073474;28;19904;-55
2021/04/10 10:24:11;;;;;;;;;;;;;;;;;;5073819;28;19913;-56
2021/04/10 10:26:38;;;;;;;;;;;;;;;;;;5073533;28;19994;-56
2021/04/10 10:29:04;;;;;;;;;;;;;;;;;;5073543;28;20296;-56
2021/04/10 10:31:30;;;;;;;;;;;;;;;;;;5073279;28;19904;-55
2021/04/10 10:33:56;;;;;;;;;;;;;;;;;;5073572;28;19983;-56
2021/04/10 10:36:23;;;;;;;;;;;;;;;;;;5073443;28;19912;-57
2021/04/10 10:38:49;;;;;;;;;;;;;;;;;;5072724;28;19912;-56
2021/04/10 10:41:15;;;;;;;;;;;;;;;;;;5073454;28;19912;-57
2021/04/10 10:43:41;;;;;;;;;;;;;;;;;;5073171;28;19920;-57
2021/04/10 10:46:07;;;;;;;;;;;;;;;;;;5073868;28;19908;-57
2021/04/10 10:48:33;;;;;;;;;;;;;;;;;;5072836;28;19909;-56
2021/04/10 10:50:59;;;;;;;;;;;;;;;;;;5073040;28;20357;-58
2021/04/10 10:53:25;;;;;;;;;;;;;;;;;;5073375;28;19936;-56
2021/04/10 10:55:51;;;;;;;;;;;;;;;;;;5072984;28;20007;-57
2021/04/10 10:58:17;;;;;;;;;;;;;;;;;;5073098;28;20020;-57
2021/04/10 11:00:43;;;;;;;;;;;;;;;;;;5073082;28;20094;-56
2021/04/10 11:03:09;;;;;;;;;;;;;;;;;;5071565;28;22911;-57
2021/04/10 11:05:35;;;;;;;;;;;;;;;;;;5072555;28;19991;-57
2021/04/10 11:08:01;;;;;;;;;;;;;;;;;;5072612;28;19936;-56
2021/04/10 11:10:27;;;;;;;;;;;;;;;;;;5072860;28;19962;-57
2021/04/10 11:12:53;;;;;;;;;;;;;;;;;;5072920;28;19965;-57
2021/04/10 11:15:18;;;;;;;;;;;;;;;;;;5072537;28;20374;-56
2021/04/10 11:17:44;;;;;;;;;;;;;;;;;;5072525;28;19904;-56
2021/04/10 11:20:10;;;;;;;;;;;;;;;;;;5069250;28;19966;-57
2021/04/10 11:22:36;;;;;;;;;;;;;;;;;;5061638;28;19912;-56
2021/04/10 11:25:02;;;;;;;;;;;;;;;;;;5058234;28;19951;-56
2021/04/10 11:27:28;;;;;;;;;;;;;;;;;;5072978;28;19904;-58
2021/04/10 11:29:54;;;;;;;;;;;;;;;;;;5072483;28;19908;-58
2021/04/10 11:32:20;;;;;;;;;;;;;;;;;;5072754;28;19905;-57
2021/04/10 11:34:46;;;;;;;;;;;;;;;;;;5072142;28;19931;-57
2021/04/10 11:37:12;;;;;;;;;;;;;;;;;;5072690;28;19911;-58
2021/04/10 11:39:38;;;;;;;;;;;;;;;;;;5072499;28;19905;-56
2021/04/10 11:42:04;;;;;;;;;;;;;;;;;;5072567;28;20353;-56
2021/04/10 11:44:30;;;;;;;;;;;;;;;;;;5072071;28;19946;-55
2021/04/10 11:46:56;;;;;;;;;;;;;;;;;;5072647;28;19908;-57
2021/04/10 11:49:22;;;;;;;;;;;;;;;;;;5071289;28;19904;-56
2021/04/10 11:51:48;;;;;;;;;;;;;;;;;;5072200;28;19931;-58
2021/04/10 11:54:14;;;;;;;;;;;;;;;;;;5072168;28;19912;-57
2021/04/10 11:56:40;;;;;;;;;;;;;;;;;;5071330;28;19991;-59
2021/04/10 11:59:06;;;;;;;;;;;;;;;;;;5071889;28;19908;-57
2021/04/10 12:01:32;;;;;;;;;;;;;;;;;;5071467;28;20334;-57
2021/04/10 12:04:02;;;;;;;;;;;;;;;;;;5071980;28;19958;-55
2021/04/10 12:06:28;;;;;;;;;;;;;;;;;;5071202;28;19930;-57
2021/04/10 12:08:54;;;;;;;;;;;;;;;;;;5069060;28;20358;-56
2021/04/10 12:11:20;;;;;;;;;;;;;;;;;;5068494;28;20266;-56
2021/04/10 12:13:45;;;;;;;;;;;;;;;;;;5063263;28;20015;-55
2021/04/10 12:16:11;;;;;;;;;;;;;;;;;;5059750;28;20038;-56
2021/04/10 12:18:37;;;;;;;;;;;;;;;;;;5058165;28;19913;-57
2021/04/10 12:21:03;;;;;;;;;;;;;;;;;;5052392;28;20298;-55
2021/04/10 12:23:29;;;;;;;;;;;;;;;;;;5055646;28;19932;-56
2021/04/10 12:25:55;;;;;;;;;;;;;;;;;;5069309;28;19904;-56
2021/04/10 12:28:22;;;;;;;;;;;;;;;;;;5070130;28;19912;-56
2021/04/10 12:30:48;;;;;;;;;;;;;;;;;;5068597;28;20033;-56
2021/04/10 12:33:14;;;;;;;;;;;;;;;;;;5069525;28;19905;-56
2021/04/10 12:35:40;;;;;;;;;;;;;;;;;;5070039;28;19911;-56
2021/04/10 12:38:06;;;;;;;;;;;;;;;;;;5068022;28;19911;-56
2021/04/10 12:40:32;;;;;;;;;;;;;;;;;;5069731;28;19911;-56
2021/04/10 12:42:58;;;;;;;;;;;;;;;;;;5068185;28;19966;-58
2021/04/10 12:45:24;;;;;;;;;;;;;;;;;;5051641;28;19905;-60
2021/04/10 12:47:50;;;;;;;;;;;;;;;;;;5051608;28;20400;-56
2021/04/10 12:50:16;;;;;;;;;;;;;;;;;;5051330;28;19912;-57
2021/04/10 12:52:41;;;;;;;;;;;;;;;;;;5053269;28;19931;-57
2021/04/10 12:55:07;;;;;;;;;;;;;;;;;;5051439;28;19936;-57
2021/04/10 12:57:33;;;;;;;;;;;;;;;;;;5052060;28;20278;-56
2021/04/10 12:59:59;;;;;;;;;;;;;;;;;;5065837;28;19948;-56
2021/04/10 13:02:25;;;;;;;;;;;;;;;;;;5074889;28;19951;-56
2021/04/10 13:04:51;;;;;;;;;;;;;;;;;;5074884;28;19904;-58
2021/04/10 13:07:17;;;;;;;;;;;;;;;;;;5074729;28;20377;-57
2021/04/10 13:09:44;;;;;;;;;;;;;;;;;;5074513;28;19912;-59
2021/04/10 13:12:10;;;;;;;;;;;;;;;;;;5072708;28;19905;-57
2021/04/10 13:14:36;;;;;;;;;;;;;;;;;;5064075;28;19904;-56
2021/04/10 13:17:02;;;;;;;;;;;;;;;;;;5074796;28;19975;-56
2021/04/10 13:19:28;;;;;;;;;;;;;;;;;;5070544;28;19915;-63
2021/04/10 13:21:54;;;;;;;;;;;;;;;;;;5057351;28;19917;-65
2021/04/10 13:24:20;;;;;;;;;;;;;;;;;;5061731;28;19912;-68
2021/04/10 13:26:46;;;;;;;;;;;;;;;;;;5055626;28;20003;-66
2021/04/10 13:29:12;;;;;;;;;;;;;;;;;;5055029;28;19908;-63
2021/04/10 13:31:38;;;;;;;;;;;;;;;;;;5061484;28;19915;-60
2021/04/10 13:34:04;;;;;;;;;;;;;;;;;;5073160;28;19908;-61
2021/04/10 13:36:30;;;;;;;;;;;;;;;;;;5060233;28;19962;-63
2021/04/10 13:38:56;;;;;;;;;;;;;;;;;;5071505;28;19912;-64
2021/04/10 13:41:22;;;;;;;;;;;;;;;;;;5058302;28;19905;-63
2021/04/10 13:43:48;;;;;;;;;;;;;;;;;;5067372;28;19984;-61
2021/04/10 13:46:16;;;;;;;;;;;;;;;;;;5058498;28;20423;-62
2021/04/10 13:48:42;;;;;;;;;;;;;;;;;;5055086;28;19909;-61
2021/04/10 13:51:08;;;;;;;;;;;;;;;;;;5061447;28;19912;-62
2021/04/10 13:53:34;;;;;;;;;;;;;;;;;;5050394;28;19995;-61
2021/04/10 13:56:00;;;;;;;;;;;;;;;;;;5060395;28;20266;-61
2021/04/10 13:58:26;;;;;;;;;;;;;;;;;;5062836;28;19905;-65
2021/04/10 14:00:52;;;;;;;;;;;;;;;;;;5065498;28;19905;-66
2021/04/10 14:03:18;;;;;;;;;;;;;;;;;;5066796;28;19920;-68
2021/04/10 14:05:44;;;;;;;;;;;;;;;;;;5072903;28;19964;-65
2021/04/10 14:08:10;;;;;;;;;;;;;;;;;;5071453;28;19912;-73
2021/04/10 14:10:36;;;;;;;;;;;;;;;;;;5071766;28;19915;-70
2021/04/10 14:13:03;;;;;;;;;;;;;;;;;;5063997;28;20392;-62
2021/04/10 14:15:29;;;;;;;;;;;;;;;;;;5063175;28;19911;-64
2021/04/10 14:17:55;;;;;;;;;;;;;;;;;;5064273;28;19908;-61
2021/04/10 14:20:21;;;;;;;;;;;;;;;;;;5064437;28;19995;-62
2021/04/10 14:22:47;;;;;;;;;;;;;;;;;;5064862;28;19916;-59
2021/04/10 14:25:15;;;;;;;;;;;;;;;;;;5050884;28;19974;-62
2021/04/10 14:27:41;;;;;;;;;;;;;;;;;;5063057;28;19966;-62
2021/04/10 14:30:07;;;;;;;;;;;;;;;;;;5057762;28;20354;-63
2021/04/10 14:32:33;;;;;;;;;;;;;;;;;;5066932;28;19908;-62
2021/04/10 14:34:59;;;;;;;;;;;;;;;;;;5069141;28;20255;-62
2021/04/10 14:37:25;;;;;;;;;;;;;;;;;;5064142;28;19920;-65
2021/04/10 14:39:51;;;;;;;;;;;;;;;;;;5064707;28;19908;-67
2021/04/10 14:42:17;;;;;;;;;;;;;;;;;;5048956;28;19943;-64
2021/04/10 14:44:42;;;;;;;;;;;;;;;;;;5062195;28;20359;-64
2021/04/10 14:47:08;;;;;;;;;;;;;;;;;;5063824;28;19915;-69
2021/04/10 14:49:34;;;;;;;;;;;;;;;;;;5056136;28;19909;-69
2021/04/10 14:52:00;;;;;;;;;;;;;;;;;;5060436;28;19924;-63
2021/04/10 14:54:26;;;;;;;;;;;;;;;;;;5056225;28;19966;-60
2021/04/10 14:56:52;;;;;;;;;;;;;;;;;;5059008;28;19963;-70
2021/04/10 14:59:18;;;;;;;;;;;;;;;;;;5057602;28;20254;-64
2021/04/10 15:01:44;;;;;;;;;;;;;;;;;;5060947;28;20541;-58
2021/04/10 15:04:10;;;;;;;;;;;;;;;;;;5068941;28;19928;-67
2021/04/10 15:06:36;;;;;;;;;;;;;;;;;;5061522;28;19908;-60
2021/04/10 15:09:02;;;;;;;;;;;;;;;;;;5059546;28;19908;-59
2021/04/10 15:11:28;;;;;;;;;;;;;;;;;;5058555;28;19912;-60
2021/04/10 15:13:54;;;;;;;;;;;;;;;;;;5062893;28;19909;-59
2021/04/10 15:16:20;;;;;;;;;;;;;;;;;;5070210;28;19991;-57
2021/04/10 15:18:46;;;;;;;;;;;;;;;;;;5069033;28;19995;-58
2021/04/10 15:21:12;;;;;;;;;;;;;;;;;;5059929;28;20403;-59
2021/04/10 15:23:38;;;;;;;;;;;;;;;;;;5052954;28;20010;-58
2021/04/10 15:26:05;;;;;;;;;;;;;;;;;;5062216;28;20417;-59
2021/04/10 15:28:31;;;;;;;;;;;;;;;;;;5055540;28;19908;-59
2021/04/10 15:31:03;;;;;;;;;;;;;;;;;;5052993;28;19954;-58
2021/04/10 15:33:29;;;;;;;;;;;;;;;;;;5053416;28;19912;-58
2021/04/10 15:35:55;;;;;;;;;;;;;;;;;;5053086;28;19905;-60
2021/04/10 15:38:21;;;;;;;;;;;;;;;;;;5053038;28;20244;-59
2021/04/10 15:40:47;;;;;;;;;;;;;;;;;;5052508;28;20433;-61
2021/04/10 15:43:13;;;;;;;;;;;;;;;;;;5053043;28;19912;-60
2021/04/10 15:45:39;;;;;;;;;;;;;;;;;;5065026;28;19908;-58
2021/04/10 15:48:04;;;;;;;;;;;;;;;;;;5068711;28;19949;-57
2021/04/10 15:50:30;;;;;;;;;;;;;;;;;;5066969;28;19912;-60
2021/04/10 15:52:56;;;;;;;;;;;;;;;;;;5044764;28;20436;-58
2021/04/10 15:55:22;;;;;;;;;;;;;;;;;;5065547;28;19904;-58
2021/04/10 15:57:48;;;;;;;;;;;;;;;;;;5064687;28;19965;-59
2021/04/10 16:00:14;;;;;;;;;;;;;;;;;;5068626;28;19999;-59
2021/04/10 16:02:40;;;;;;;;;;;;;;;;;;5065851;28;20006;-58
2021/04/10 16:05:06;;;;;;;;;;;;;;;;;;5069293;28;20354;-60
2021/04/10 16:07:32;;;;;;;;;;;;;;;;;;5068191;28;19905;-59
2021/04/10 16:09:58;;;;;;;;;;;;;;;;;;5068628;28;19991;-59
2021/04/10 16:12:24;;;;;;;;;;;;;;;;;;5071707;28;20047;-60
2021/04/10 16:14:49;;;;;;;;;;;;;;;;;;5066883;28;19990;-59
2021/04/10 16:17:15;;;;;;;;;;;;;;;;;;5070039;28;19904;-60
2021/04/10 16:19:41;;;;;;;;;;;;;;;;;;5070602;28;19950;-59
2021/04/10 16:22:07;;;;;;;;;;;;;;;;;;5064640;28;19956;-59
2021/04/10 16:24:33;;;;;;;;;;;;;;;;;;5072163;28;19912;-59
2021/04/10 16:26:59;;;;;;;;;;;;;;;;;;5071185;28;19924;-60
2021/04/10 16:29:25;;;;;;;;;;;;;;;;;;5072054;28;20358;-59
2021/04/10 16:31:51;;;;;;;;;;;;;;;;;;5070516;28;19908;-59
2021/04/10 16:34:17;;;;;;;;;;;;;;;;;;5055713;28;20280;-60
2021/04/10 16:36:43;;;;;;;;;;;;;;;;;;5060772;28;19995;-58